Time;durP1;ratioP1;P1;durP2;ratioP2;P2;SDS_P1;SDS_P2;PMS_P1;PMS_P2;Temp;Humidity;BMP_temperature;BMP_pressure;BME280_temperature;BME280_humidity;BME280_pressure;Samples;Min_cycle;Max_cycle;Signal;HPM_P1;HPM_P2
2022/04/25 00:03:28;;;;;;;5.72;1.90;;;;;;;10.38;70.84;99376.97;18435138;32;20101;-63
2022/04/25 00:13:31;;;;;;;5.43;1.90;;;;;;;10.49;71.06;99387.25;18435060;32;20146;-63
2022/04/25 00:23:36;;;;;;;3.90;1.85;;;;;;;10.29;70.03;99385.84;18434383;32;20653;-63
2022/04/25 00:33:39;;;;;;;5.90;2.33;;;;;;;9.94;69.92;99380.31;18434350;32;20089;-63
2022/04/25 00:43:43;;;;;;;3.37;2.00;;;;;;;9.48;71.03;99376.66;18434662;32;20370;-63
2022/04/25 00:53:48;;;;;;;3.85;1.90;;;;;;;9.32;72.02;99380.38;18434030;32;20448;-63
2022/04/25 01:03:52;;;;;;;3.92;2.00;;;;;;;9.27;72.25;99373.47;18433864;32;20104;-63
2022/04/25 01:13:55;;;;;;;3.95;1.67;;;;;;;9.15;71.31;99371.03;18433844;32;20771;-63
2022/04/25 01:34:20;;;;;;;4.22;2.25;;;;;;;9.06;72.61;99381.56;18431799;32;20112;-63
2022/04/25 01:44:25;;;;;;;5.07;2.17;;;;;;;9.51;72.72;99373.16;18433556;32;20104;-63
2022/04/25 01:54:29;;;;;;;4.53;2.30;;;;;;;9.55;73.42;99377.44;18432238;32;20199;-63
2022/04/25 02:04:34;;;;;;;5.47;2.12;;;;;;;9.74;72.41;99375.41;18431891;32;20097;-63
2022/04/25 02:14:39;;;;;;;5.47;2.00;;;;;;;9.88;71.49;99382.19;18431342;32;20105;-63
2022/04/25 02:24:43;;;;;;;6.32;2.78;;;;;;;10.05;72.60;99377.53;18432293;32;20344;-63
2022/04/25 02:34:46;;;;;;;4.57;2.35;;;;;;;10.18;73.01;99362.53;18430495;32;20092;-63
2022/04/25 02:44:51;;;;;;;6.62;2.78;;;;;;;10.54;72.16;99365.41;18429613;32;20093;-63
2022/04/25 02:54:54;;;;;;;8.60;2.97;;;;;;;11.12;71.76;99358.19;18429436;32;20399;-63
2022/04/25 03:04:59;;;;;;;5.03;2.22;;;;;;;11.19;72.02;99380.69;18429712;32;20115;-63
2022/04/25 03:15:02;;;;;;;12.40;3.25;;;;;;;11.51;71.28;99406.13;18428237;32;20125;-63
2022/04/25 03:25:07;;;;;;;9.93;3.50;;;;;;;11.80;71.88;99416.78;18428713;32;20487;-63
2022/04/25 03:35:11;;;;;;;8.23;3.40;;;;;;;11.91;71.42;99422.66;18428006;32;20129;-63
2022/04/25 03:45:18;;;;;;;9.45;3.12;;;;;;;12.37;69.02;99411.12;18426348;32;20101;-63
2022/04/25 04:05:45;;;;;;;4.43;2.42;;;;;;;12.40;67.70;99414.53;18171587;32;20118;-63
2022/04/25 04:15:50;;;;;;;5.97;1.98;;;;;;;12.64;64.51;99420.00;18171544;32;20132;-63
2022/04/25 04:25:55;;;;;;;3.85;1.73;;;;;;;12.82;64.58;99420.44;18172372;32;20154;-63
2022/04/25 04:46:20;;;;;;;3.65;1.58;;;;;;;13.29;63.48;99440.97;18434645;32;20101;-63
2022/04/25 04:56:23;;;;;;;5.53;2.12;;;;;;;13.03;64.91;99458.28;18434106;32;20224;-63
2022/04/25 05:06:28;;;;;;;6.37;2.37;;;;;;;12.92;66.37;99458.56;18433083;32;20120;-63
2022/04/25 05:16:31;;;;;;;4.45;1.87;;;;;;;13.23;64.99;99464.72;18433302;32;20492;-63
2022/04/25 05:26:36;;;;;;;4.47;2.30;;;;;;;13.69;63.28;99458.16;18434074;32;20365;-63
2022/04/25 05:36:46;;;;;;;2.37;1.60;;;;;;;13.83;62.53;99470.88;18432638;32;20121;-63
2022/04/25 05:46:50;;;;;;;2.67;1.00;;;;;;;14.54;59.69;99472.12;18433018;32;20152;-63
2022/04/25 05:56:53;;;;;;;2.17;1.10;;;;;;;15.38;56.11;99470.09;18417930;32;20159;-64
2022/04/25 06:06:59;;;;;;;3.28;0.70;;;;;;;16.73;53.25;99476.25;18430686;32;20115;-64
2022/04/25 06:17:02;;;;;;;1.12;0.60;;;;;;;18.16;48.42;99472.50;18429215;32;20149;-64
2022/04/25 06:27:09;;;;;;;2.50;0.40;;;;;;;19.19;44.22;99464.75;18416472;32;20103;-64
2022/04/25 06:37:12;;;;;;;0.73;0.35;;;;;;;19.32;42.95;99449.94;18430410;32;20097;-64
2022/04/25 06:47:17;;;;;;;1.25;0.57;;;;;;;19.02;43.30;99458.59;18398983;32;20378;-64
2022/04/25 06:57:20;;;;;;;0.77;0.60;;;;;;;19.74;42.06;99455.62;18398119;32;20089;-64
2022/04/25 07:07:25;;;;;;;1.00;0.57;;;;;;;20.15;40.12;99466.63;18423658;32;20512;-64
2022/04/25 07:17:28;;;;;;;1.02;0.70;;;;;;;24.22;32.66;99460.72;18425714;32;20460;-65
2022/04/25 07:37:55;;;;;;;1.20;0.62;;;;;;;23.67;32.77;99464.62;18430577;32;20085;-64
2022/04/25 07:47:59;;;;;;;1.67;0.77;;;;;;;22.39;36.04;99477.78;18430097;32;20097;-64
2022/04/25 07:58:03;;;;;;;2.67;0.80;;;;;;;22.64;35.34;99475.31;18434368;32;20111;-64
2022/04/25 08:08:09;;;;;;;1.45;0.70;;;;;;;21.84;36.89;99483.06;18434549;32;20119;-64
2022/04/25 08:18:17;;;;;;;1.02;0.55;;;;;;;21.48;38.86;99482.63;18434024;32;20163;-64
2022/04/25 08:28:21;;;;;;;0.80;0.62;;;;;;;20.97;38.64;99490.22;18434123;32;20111;-64
2022/04/25 08:38:44;;;;;;;1.23;0.70;;;;;;;20.88;39.60;99489.81;18418369;32;20159;-64
2022/04/25 08:48:49;;;;;;;0.98;0.70;;;;;;;20.48;41.02;99500.06;18433907;32;20093;-64
2022/04/25 08:58:57;;;;;;;1.40;0.60;;;;;;;20.21;40.75;99506.03;18429747;32;20450;-65
2022/04/25 09:09:02;;;;;;;2.62;0.80;;;;;;;20.32;39.93;99508.91;18305409;32;20116;-63
2022/04/25 09:19:05;;;;;;;0.88;0.60;;;;;;;19.66;40.58;99511.63;18351194;32;20120;-64
2022/04/25 09:29:12;;;;;;;2.25;0.70;;;;;;;20.85;38.36;99526.28;18306745;32;20112;-65
2022/04/25 09:39:27;;;;;;;0.90;0.60;;;;;;;21.84;37.03;99528.22;18305184;32;20129;-64
2022/04/25 09:49:32;;;;;;;0.85;0.50;;;;;;;22.16;34.60;99535.97;18304737;32;20461;-64
2022/04/25 09:59:44;;;;;;;0.62;0.50;;;;;;;22.80;35.51;99534.50;18302007;32;20175;-64
2022/04/25 10:09:52;;;;;;;0.60;0.57;;;;;;;23.60;31.91;99537.13;18303729;32;20086;-65
2022/04/25 10:19:56;;;;;;;0.40;0.40;;;;;;;21.76;35.80;99565.91;18334614;32;20107;-64
2022/04/25 10:30:04;;;;;;;0.65;0.40;;;;;;;21.04;37.72;99568.47;18366240;32;20125;-64
2022/04/25 10:40:08;;;;;;;0.77;0.40;;;;;;;20.83;37.16;99584.69;18365656;32;20097;-64
2022/04/25 10:50:13;;;;;;;0.70;0.47;;;;;;;19.55;40.23;99604.87;18364355;32;20115;-64
2022/04/25 11:00:48;;;;;;;1.00;0.52;;;;;;;20.18;39.03;99605.09;18351200;32;20115;-65
2022/04/25 11:11:00;;;;;;;0.40;0.40;;;;;;;19.99;38.27;99594.63;18365048;32;20085;-64
2022/04/25 11:21:05;;;;;;;1.67;0.50;;;;;;;19.96;36.13;99623.94;18371607;32;20093;-64
2022/04/25 11:31:24;;;;;;;0.60;0.50;;;;;;;19.90;37.90;99640.13;18297968;32;20363;-64
2022/04/25 11:41:28;;;;;;;0.30;0.30;;;;;;;19.54;39.94;99658.75;18338805;32;20115;-64
2022/04/25 11:51:33;;;;;;;0.43;0.43;;;;;;;19.21;41.31;99679.84;18370452;32;20085;-64
2022/04/25 12:01:38;;;;;;;0.90;0.80;;;;;;;19.44;39.73;99683.94;18397538;32;20185;-64
2022/04/25 12:22:04;;;;;;;0.32;0.32;;;;;;;20.68;38.59;99683.66;18427238;32;20113;-65
2022/04/25 12:32:12;;;;;;;0.50;0.50;;;;;;;20.69;37.34;99688.87;18370216;32;20112;-65
2022/04/25 12:42:17;;;;;;;0.85;0.50;;;;;;;20.62;37.92;99699.00;18421162;32;20404;-65
2022/04/25 12:52:22;;;;;;;0.50;0.50;;;;;;;21.30;35.74;99691.69;18417402;32;20105;-65
2022/04/25 13:02:34;;;;;;;0.90;0.70;;;;;;;20.65;37.28;99693.50;18431687;32;20097;-65
2022/04/25 13:12:41;;;;;;;0.60;0.60;;;;;;;20.54;37.66;99693.25;18425120;32;20100;-65
2022/04/25 13:22:45;;;;;;;0.50;0.50;;;;;;;20.53;37.16;99696.84;18431383;32;20093;-64
2022/04/25 13:32:51;;;;;;;0.50;0.47;;;;;;;21.76;35.16;99682.78;18419726;32;20438;-65
2022/04/25 13:42:54;;;;;;;0.82;0.47;;;;;;;21.63;35.15;99679.16;18418668;32;20116;-64
2022/04/25 13:52:59;;;;;;;1.10;0.60;;;;;;;21.41;33.65;99699.00;18417924;32;20121;-65
2022/04/25 14:03:08;;;;;;;0.73;0.43;;;;;;;21.27;35.06;99694.47;18417051;32;20154;-65
2022/04/25 14:13:21;;;;;;;1.25;0.77;;;;;;;20.72;34.54;99712.56;18427995;32;20085;-64
2022/04/25 14:23:25;;;;;;;0.60;0.60;;;;;;;20.41;35.40;99708.97;18416711;32;20115;-65
2022/04/25 14:33:29;;;;;;;0.70;0.70;;;;;;;20.66;36.36;99718.25;18430881;32;20113;-65
2022/04/25 14:43:35;;;;;;;1.30;0.88;;;;;;;21.71;35.63;99719.37;18415546;32;20457;-64
2022/04/25 15:04:00;;;;;;;1.83;1.02;;;;;;;21.10;34.06;99727.31;18409607;32;20108;-65
2022/04/25 15:14:04;;;;;;;1.30;1.17;;;;;;;21.39;34.72;99731.88;18413552;32;20131;-64
2022/04/25 15:24:08;;;;;;;1.67;0.80;;;;;;;21.16;35.52;99723.44;18413816;32;20146;-65
2022/04/25 15:34:13;;;;;;;2.35;1.45;;;;;;;20.68;34.56;99729.59;18427562;32;20444;-65
2022/04/25 15:44:16;;;;;;;4.12;1.52;;;;;;;20.36;35.64;99741.03;18412490;32;20105;-66
2022/04/25 16:04:41;;;;;;;2.75;1.30;;;;;;;19.98;39.00;99772.22;18436016;32;20434;-64
2022/04/25 16:14:47;;;;;;;4.00;1.50;;;;;;;20.28;38.47;99782.97;18436419;32;20093;-64
2022/04/25 16:24:50;;;;;;;7.55;3.40;;;;;;;20.08;39.07;99787.53;18435266;32;20093;-64
2022/04/25 16:34:54;;;;;;;1.60;1.17;;;;;;;19.08;41.05;99802.09;18435147;32;20140;-64
2022/04/25 16:44:58;;;;;;;2.92;1.40;;;;;;;19.13;41.19;99810.69;18434624;32;20397;-64
2022/04/25 16:55:02;;;;;;;3.17;1.60;;;;;;;18.72;42.00;99816.06;18419778;32;20107;-64
2022/04/25 17:05:07;;;;;;;2.97;1.50;;;;;;;19.00;41.83;99820.06;18433255;32;20122;-64
2022/04/25 17:15:11;;;;;;;3.95;2.30;;;;;;;18.32;42.87;99839.00;18432631;32;20120;-64
2022/04/25 17:25:15;;;;;;;5.00;2.50;;;;;;;18.27;43.28;99841.81;18389582;32;20124;-64
2022/04/25 17:35:26;;;;;;;9.38;3.33;;;;;;;17.96;44.54;99849.22;18372875;32;20125;-64
